Portada
METAR-TAF:

METAR-TAF

Aeroports :

Volgograd, Rússia

latitud: 48-47N, longitud: 044-22E, altitud: 145 m

Observació

L'informe es va fer fa 25 minuts, a les 19:00 UTC
Vent 10 kt del Est
Temperatura 18°C
Humitat 42%
Pressió 1019 hPa
Visibilitat 10 km o més
sense núvols per sota de 1500 mi sense presència de cumulonimbus.

METAR: URWW 251900Z 09005MPS CAVOK 18/05 Q1019 R06/010070 NOSIG

Hora: 23:25 (19:25 UTC)

Pronòstic

L'informe es va fer fa 2 hores i 28 minuts, a les 16:57 UTC
Pronòstic vàlid del 25 a les 18 UTC al 26 a les 03 UTC
Vent 10 kt del Est/Sud-Est amb ràfegues de 19 kt
Visibilitat 10 km o més
Núvols disperses a una alçada de 3000 ft, Cumulonimbus.
Temporalment
l' 25 a les 18 UTC al 26 a les 03 UTC
Vent 14 kt del Est amb ràfegues de 25 kt

TAF: URWW 251657Z 2518/2603 11005G10MPS 9999 SCT030CB TEMPO 2518/2603 08007G13MPS

Observacions i pronòstics meteorològics de més de 4000 aeroports (METAR i TAF).

Les estacions disponibles són els punts grocs i vermells al mapa.

Posi el ratolí al punt desitjat per veure el nom de l'estació.

Feu clic per veure les observacions i els pronòstics meteorològics.

Per canviar el mapa: feu clic els botons verds amb una creu de color negre per apropar; al botó verd amb un guió per allunyar la imatge; o en les fletxes verdes per a mapes adjacents.


METAR-TAF: